| time (UTC) | temp F | wind direction | speed MPH | gust MPH | rain 1hr in | rain 24hr in | rain mn in | humidity % | barometer mb |
| 20260510025231 | 50 | 105 | 0.0 | 0.0 | 0.00 | 0.00 | 0.00 | 67 | 1039.6 |
| 20260510023731 | 53 | 82 | 0.0 | 3.0 | 0.00 | 0.00 | 0.00 | 61 | 1039.5 |
| 20260510022231 | 53 | 114 | 0.0 | 0.0 | 0.00 | 0.00 | 0.00 | 63 | 1039.1 |
| 20260510020730 | 55 | 114 | 0.0 | 0.0 | 0.00 | 0.00 | 0.00 | 57 | 1038.8 |
| 20260510015229 | 57 | 98 | 0.0 | 1.0 | 0.00 | 0.00 | 0.00 | 53 | 1038.3 |
| 20260510013729 | 59 | 0 | 0.0 | 1.0 | 0.00 | 0.00 | 0.00 | 50 | 1038.0 |
| 20260510012226 | 60 | 15 | 0.0 | 2.0 | 0.00 | 0.00 | 0.00 | 48 | 1037.9 |
| 20260510010725 | 61 | 187 | 0.0 | 3.0 | 0.00 | 0.00 | 0.00 | 47 | 1037.4 |
| 20260510005220 | 62 | 255 | 0.0 | 4.0 | 0.00 | 0.00 | 0.00 | 46 | 1036.9 |
| 20260510003719 | 63 | 337 | 2.0 | 3.0 | 0.00 | 0.00 | 0.00 | 44 | 1036.7 |
| 20260510002217 | 64 | 281 | 0.0 | 5.0 | 0.00 | 0.00 | 0.00 | 45 | 1036.5 |
| 20260510000713 | 65 | 183 | 3.0 | 8.0 | 0.00 | 0.00 | 0.00 | 43 | 1036.4 |
| 20260509235210 | 66 | 285 | 3.0 | 5.0 | 0.00 | 0.00 | 0.00 | 43 | 1035.8 |
| 20260509233707 | 67 | 0 | 2.0 | 10.0 | 0.00 | 0.00 | 0.00 | 40 | 1035.5 |
| 20260509232203 | 69 | 250 | 4.0 | 6.0 | 0.00 | 0.00 | 0.00 | 39 | 1035.4 |
| 20260509230700 | 70 | 355 | 1.0 | 5.0 | 0.00 | 0.00 | 0.00 | 40 | 1035.0 |
| 20260509225200 | 69 | 5 | 5.0 | 5.0 | 0.00 | 0.00 | 0.00 | 39 | 1034.9 |
| 20260509223656 | 70 | 286 | 5.0 | 8.0 | 0.00 | 0.00 | 0.00 | 36 | 1034.5 |
| 20260509222151 | 69 | 278 | 0.0 | 5.0 | 0.00 | 0.00 | 0.00 | 38 | 1034.3 |
| 20260509220651 | 70 | 252 | 4.0 | 9.0 | 0.00 | 0.00 | 0.00 | 37 | 1034.0 |
| 20260509215146 | 71 | 256 | 5.0 | 18.0 | 0.00 | 0.00 | 0.00 | 35 | 1033.9 |
| 20260509213643 | 70 | 248 | 10.0 | 14.0 | 0.00 | 0.00 | 0.00 | 35 | 1033.6 |
| 20260509212138 | 70 | 226 | 6.0 | 14.0 | 0.00 | 0.00 | 0.00 | 35 | 1033.6 |
| 20260509210634 | 71 | 264 | 3.0 | 15.0 | 0.00 | 0.00 | 0.00 | 35 | 1033.1 |
| 20260509205132 | 71 | 250 | 8.0 | 16.0 | 0.00 | 0.00 | 0.00 | 33 | 1033.2 |
| 20260509203632 | 71 | 246 | 5.0 | 10.0 | 0.00 | 0.00 | 0.00 | 36 | 1033.0 |
| 20260509202132 | 71 | 251 | 5.0 | 11.0 | 0.00 | 0.00 | 0.00 | 34 | 1033.1 |
| 20260509200632 | 72 | 266 | 8.0 | 12.0 | 0.00 | 0.00 | 0.00 | 33 | 1032.9 |
| 20260509195131 | 72 | 254 | 8.0 | 15.0 | 0.00 | 0.00 | 0.00 | 31 | 1032.7 |
| 20260509193629 | 71 | 231 | 7.0 | 23.0 | 0.00 | 0.00 | 0.00 | 33 | 1032.8 |
| 20260509192129 | 72 | 185 | 2.0 | 11.0 | 0.00 | 0.00 | 0.00 | 35 | 1032.6 |
| 20260509190628 | 71 | 250 | 5.0 | 21.0 | 0.00 | 0.00 | 0.00 | 36 | 1032.5 |
| 20260509185125 | 71 | 292 | 5.0 | 12.0 | 0.00 | 0.00 | 0.00 | 37 | 1032.5 |
| 20260509183622 | 71 | 245 | 4.0 | 15.0 | 0.00 | 0.00 | 0.00 | 37 | 1032.8 |
| 20260509182116 | 68 | 259 | 3.0 | 21.0 | 0.00 | 0.00 | 0.00 | 37 | 1032.8 |
| 20260509180614 | 67 | 267 | 4.0 | 11.0 | 0.00 | 0.00 | 0.00 | 40 | 1032.7 |
| 20260509175109 | 68 | 251 | 7.0 | 9.0 | 0.00 | 0.00 | 0.00 | 39 | 1032.9 |
| 20260509173607 | 68 | 247 | 7.0 | 10.0 | 0.00 | 0.00 | 0.00 | 40 | 1032.8 |
| 20260509172102 | 68 | 270 | 2.0 | 7.0 | 0.00 | 0.00 | 0.00 | 39 | 1033.0 |
| 20260509170556 | 66 | 243 | 4.0 | 7.0 | 0.00 | 0.00 | 0.00 | 40 | 1033.2 |
| 20260509165052 | 66 | 204 | 10.0 | 12.0 | 0.00 | 0.00 | 0.00 | 40 | 1033.2 |
| 20260509163548 | 66 | 227 | 6.0 | 14.0 | 0.00 | 0.00 | 0.00 | 41 | 1033.3 |
| 20260509162047 | 67 | 205 | 4.0 | 9.0 | 0.00 | 0.00 | 0.00 | 45 | 1033.0 |
| 20260509160547 | 66 | 216 | 6.0 | 8.0 | 0.00 | 0.00 | 0.00 | 48 | 1032.9 |
| 20260509155046 | 65 | 184 | 5.0 | 11.0 | 0.00 | 0.00 | 0.00 | 52 | 1032.9 |
| 20260509153543 | 64 | 182 | 3.0 | 9.0 | 0.00 | 0.00 | 0.00 | 56 | 1032.8 |
| 20260509152039 | 63 | 279 | 4.0 | 7.0 | 0.00 | 0.00 | 0.00 | 59 | 1032.9 |
| 20260509150536 | 63 | 207 | 5.0 | 10.0 | 0.00 | 0.00 | 0.00 | 60 | 1032.7 |
| 20260509145037 | 62 | 216 | 6.0 | 7.0 | 0.00 | 0.00 | 0.00 | 64 | 1032.8 |
| 20260509143534 | 61 | 267 | 3.0 | 7.0 | 0.00 | 0.00 | 0.00 | 66 | 1032.7 |
| 20260509142035 | 61 | 226 | 4.0 | 7.0 | 0.00 | 0.00 | 0.00 | 68 | 1032.7 |
| 20260509140531 | 60 | 245 | 5.0 | 9.0 | 0.00 | 0.00 | 0.00 | 69 | 1032.6 |
| 20260509135029 | 59 | 203 | 2.0 | 7.0 | 0.00 | 0.00 | 0.00 | 73 | 1032.5 |
| 20260509133525 | 59 | 291 | 1.0 | 10.0 | 0.00 | 0.00 | 0.00 | 74 | 1032.4 |
| 20260509132026 | 59 | 220 | 5.0 | 8.0 | 0.00 | 0.00 | 0.00 | 75 | 1032.5 |
| 20260509130525 | 58 | 244 | 7.0 | 9.0 | 0.00 | 0.00 | 0.00 | 78 | 1032.4 |
| 20260509125022 | 57 | 286 | 2.0 | 8.0 | 0.00 | 0.00 | 0.00 | 81 | 1032.7 |
| 20260509123519 | 57 | 218 | 7.0 | 14.0 | 0.00 | 0.00 | 0.00 | 81 | 1032.4 |
| 20260509122015 | 56 | 252 | 4.0 | 7.0 | 0.00 | 0.00 | 0.00 | 83 | 1032.5 |
| 20260509120513 | 56 | 156 | 4.0 | 9.0 | 0.00 | 0.00 | 0.00 | 83 | 1032.2 |
| 20260509115011 | 55 | 214 | 7.0 | 10.0 | 0.00 | 0.00 | 0.00 | 84 | 1032.5 |
| 20260509113512 | 55 | 208 | 5.0 | 8.0 | 0.00 | 0.00 | 0.00 | 83 | 1032.1 |
| 20260509112008 | 54 | 188 | 4.0 | 5.0 | 0.00 | 0.00 | 0.00 | 84 | 1032.2 |
| 20260509110504 | 54 | 233 | 2.0 | 8.0 | 0.00 | 0.00 | 0.00 | 84 | 1031.7 |
| 20260509105003 | 54 | 250 | 4.0 | 11.0 | 0.00 | 0.00 | 0.00 | 84 | 1031.6 |
| 20260509103500 | 54 | 252 | 3.0 | 11.0 | 0.00 | 0.00 | 0.00 | 84 | 1031.5 |
| 20260509101957 | 54 | 227 | 3.0 | 7.0 | 0.00 | 0.00 | 0.00 | 84 | 1031.7 |
| 20260509100454 | 54 | 228 | 5.0 | 9.0 | 0.00 | 0.00 | 0.00 | 84 | 1031.9 |
| 20260509094950 | 55 | 264 | 2.0 | 7.0 | 0.00 | 0.00 | 0.00 | 84 | 1031.8 |
| 20260509093448 | 54 | 297 | 1.0 | 9.0 | 0.00 | 0.00 | 0.00 | 84 | 1031.9 |
| 20260509091947 | 54 | 253 | 6.0 | 9.0 | 0.00 | 0.00 | 0.00 | 84 | 1031.9 |
| 20260509090444 | 54 | 243 | 2.0 | 9.0 | 0.00 | 0.00 | 0.00 | 85 | 1032.0 |
| 20260509084940 | 54 | 218 | 7.0 | 7.0 | 0.00 | 0.00 | 0.00 | 85 | 1032.5 |
| 20260509083438 | 54 | 247 | 3.0 | 5.0 | 0.00 | 0.00 | 0.00 | 85 | 1032.3 |
| 20260509081935 | 53 | 218 | 6.0 | 7.0 | 0.00 | 0.00 | 0.00 | 86 | 1032.4 |
| 20260509080433 | 53 | 216 | 3.0 | 6.0 | 0.00 | 0.00 | 0.00 | 86 | 1032.2 |
| 20260509074932 | 54 | 175 | 0.0 | 6.0 | 0.00 | 0.00 | 0.00 | 85 | 1032.3 |
| 20260509073427 | 54 | 280 | 0.0 | 8.0 | 0.00 | 0.00 | 0.00 | 85 | 1032.5 |
| 20260509071922 | 54 | 135 | 2.0 | 13.0 | 0.00 | 0.00 | 0.00 | 85 | 1032.7 |
| 20260509070420 | 54 | 252 | 2.0 | 9.0 | 0.00 | 0.00 | 0.00 | 85 | 1033.0 |
| 20260509064919 | 54 | 254 | 2.0 | 4.0 | 0.00 | 0.00 | 0.00 | 85 | 1033.1 |
| 20260509063415 | 54 | 257 | 2.0 | 5.0 | 0.00 | 0.00 | 0.00 | 85 | 1033.4 |
| 20260509061913 | 55 | 237 | 3.0 | 6.0 | 0.00 | 0.00 | 0.00 | 85 | 1033.7 |
| 20260509060410 | 55 | 163 | 0.0 | 7.0 | 0.00 | 0.00 | 0.00 | 84 | 1033.8 |
| 20260509054910 | 55 | 240 | 2.0 | 4.0 | 0.00 | 0.00 | 0.00 | 83 | 1034.0 |
| 20260509053408 | 55 | 174 | 1.0 | 6.0 | 0.00 | 0.00 | 0.00 | 82 | 1034.0 |
| 20260509051907 | 55 | 221 | 4.0 | 4.0 | 0.00 | 0.00 | 0.00 | 81 | 1034.1 |
| 20260509050404 | 55 | 127 | 0.0 | 4.0 | 0.00 | 0.00 | 0.00 | 80 | 1034.0 |
| 20260509044900 | 56 | 194 | 0.0 | 6.0 | 0.00 | 0.00 | 0.00 | 78 | 1033.8 |
| 20260509043356 | 55 | 77 | 1.0 | 5.0 | 0.00 | 0.00 | 0.00 | 77 | 1034.1 |
| 20260509041851 | 55 | 159 | 2.0 | 4.0 | 0.00 | 0.00 | 0.00 | 77 | 1033.4 |
| 20260509040350 | 53 | 82 | 0.0 | 3.0 | 0.00 | 0.00 | 0.00 | 79 | 1033.9 |
| 20260509034846 | 53 | 90 | 0.0 | 3.0 | 0.00 | 0.00 | 0.00 | 79 | 1034.1 |
| 20260509033344 | 53 | 90 | 0.0 | 1.0 | 0.00 | 0.00 | 0.00 | 78 | 1034.2 |
| 20260509031841 | 53 | 26 | 0.0 | 2.0 | 0.00 | 0.00 | 0.00 | 77 | 1034.1 |
| 20260509030339 | 53 | 114 | 0.0 | 2.0 | 0.00 | 0.00 | 0.00 | 75 | 1034.2 |